Time;durP1;ratioP1;P1;durP2;ratioP2;P2;SDS_P1;SDS_P2;PMS_P1;PMS_P2;Temp;Humidity;BMP_temperature;BMP_pressure;BME280_temperature;BME280_humidity;BME280_pressure;Samples;Min_cycle;Max_cycle;Signal;HPM_P1;HPM_P2
2023/05/23 00:00:32;;;;;;;;;;;;;;;10.87;39.00;98114.06;6273598;28;19962;-74
2023/05/23 00:03:36;;;;;;;;;;;;;;;10.84;38.83;98115.09;6272488;28;20298;-73
2023/05/23 00:06:39;;;;;;;;;;;;;;;10.82;39.23;98116.06;6273125;28;19921;-73
2023/05/23 00:09:40;;;;;;;;;;;;;;;10.77;38.93;98113.66;6273016;28;20244;-74
2023/05/23 00:12:46;;;;;;;;;;;;;;;10.73;39.18;98125.25;6272993;28;19920;-74
2023/05/23 00:15:47;;;;;;;;;;;;;;;10.70;38.77;98117.47;6255410;28;19920;-74
2023/05/23 00:18:50;;;;;;;;;;;;;;;10.71;39.15;98122.69;6271944;28;19932;-74
2023/05/23 00:21:57;;;;;;;;;;;;;;;10.74;39.28;98124.31;6272652;28;19927;-74
2023/05/23 00:25:00;;;;;;;;;;;;;;;10.74;38.95;98122.53;6272734;28;19920;-74
2023/05/23 00:28:04;;;;;;;;;;;;;;;10.75;39.26;98121.59;6255199;28;20297;-75
2023/05/23 00:31:09;;;;;;;;;;;;;;;10.79;40.17;98123.19;6272722;28;19941;-74
2023/05/23 00:34:12;;;;;;;;;;;;;;;10.88;39.46;98121.91;6254769;28;19928;-75
2023/05/23 00:37:13;;;;;;;;;;;;;;;10.95;39.22;98125.09;6271801;28;19924;-74
2023/05/23 00:40:14;;;;;;;;;;;;;;;11.04;37.92;98127.31;6271866;28;19921;-74
2023/05/23 00:43:20;;;;;;;;;;;;;;;11.15;37.40;98130.31;6272649;28;19921;-75
2023/05/23 00:46:27;;;;;;;;;;;;;;;11.20;38.61;98133.56;6254607;28;19920;-75
2023/05/23 00:49:28;;;;;;;;;;;;;;;11.32;37.46;98128.63;6272201;28;19945;-74
2023/05/23 00:52:29;;;;;;;;;;;;;;;11.47;38.24;98130.56;6271623;28;19925;-75
2023/05/23 00:55:33;;;;;;;;;;;;;;;11.62;37.17;98135.06;6272244;28;20375;-74
2023/05/23 00:58:35;;;;;;;;;;;;;;;11.77;37.14;98137.88;6254411;28;20431;-75
2023/05/23 01:01:37;;;;;;;;;;;;;;;11.83;37.77;98132.28;6272121;28;20009;-76
2023/05/23 01:04:40;;;;;;;;;;;;;;;11.90;36.54;98133.75;6271411;28;20385;-74
2023/05/23 01:07:44;;;;;;;;;;;;;;;12.00;37.46;98129.72;6271151;28;19920;-74
2023/05/23 01:10:47;;;;;;;;;;;;;;;12.10;37.92;98136.22;6271441;28;20389;-75
2023/05/23 01:13:58;;;;;;;;;;;;;;;12.21;36.84;98137.47;6272212;28;19921;-74
2023/05/23 01:17:19;;;;;;;;;;;;;;;12.35;36.14;98129.69;6271991;28;19920;-74
2023/05/23 01:20:21;;;;;;;;;;;;;;;12.49;36.50;98132.47;6261509;28;20015;-74
2023/05/23 01:23:41;;;;;;;;;;;;;;;12.58;36.53;98136.41;6271577;28;20306;-74
2023/05/23 01:27:01;;;;;;;;;;;;;;;12.70;36.21;98138.38;6253626;28;20350;-74
2023/05/23 01:30:03;;;;;;;;;;;;;;;12.77;35.80;98141.56;6270582;28;19920;-74
2023/05/23 01:33:10;;;;;;;;;;;;;;;12.86;36.35;98146.34;6271391;28;19921;-75
2023/05/23 01:36:14;;;;;;;;;;;;;;;12.94;36.99;98144.16;6271290;28;19921;-73
2023/05/23 01:39:15;;;;;;;;;;;;;;;13.00;36.59;98143.81;6270723;28;19928;-75
2023/05/23 01:42:16;;;;;;;;;;;;;;;13.07;35.91;98154.88;6270886;28;19924;-75
2023/05/23 01:45:17;;;;;;;;;;;;;;;13.21;36.59;98159.44;6270255;28;19920;-75
2023/05/23 01:48:21;;;;;;;;;;;;;;;13.22;36.35;98163.78;6270050;28;20522;-74
2023/05/23 01:51:22;;;;;;;;;;;;;;;13.32;36.08;98164.16;6269977;28;19921;-74
2023/05/23 01:54:28;;;;;;;;;;;;;;;13.39;36.63;98171.66;6270785;28;19920;-74
2023/05/23 01:57:32;;;;;;;;;;;;;;;13.52;36.61;98166.53;6270105;28;20417;-75
2023/05/23 02:00:36;;;;;;;;;;;;;;;13.60;36.32;98168.75;6270563;28;19921;-75
2023/05/23 02:03:37;;;;;;;;;;;;;;;13.68;36.28;98171.81;6269895;28;19917;-74
2023/05/23 02:06:38;;;;;;;;;;;;;;;13.76;36.98;98180.19;6270216;28;19948;-74
2023/05/23 02:09:41;;;;;;;;;;;;;;;13.82;35.75;98174.53;6270405;28;20009;-75
2023/05/23 02:12:47;;;;;;;;;;;;;;;13.92;36.45;98174.84;6270346;28;19920;-75
2023/05/23 02:15:50;;;;;;;;;;;;;;;14.01;36.76;98173.47;6270226;28;20447;-75
2023/05/23 02:18:52;;;;;;;;;;;;;;;14.11;35.84;98169.34;6269824;28;19920;-75
2023/05/23 02:21:57;;;;;;;;;;;;;;;14.24;35.88;98178.28;6270114;28;19928;-75
2023/05/23 02:24:59;;;;;;;;;;;;;;;14.38;35.41;98178.31;6269458;28;19943;-75
2023/05/23 02:28:02;;;;;;;;;;;;;;;14.49;35.23;98184.75;6269995;28;19928;-75
2023/05/23 02:31:03;;;;;;;;;;;;;;;14.60;35.05;98187.63;6269250;28;19921;-74
2023/05/23 02:34:09;;;;;;;;;;;;;;;14.66;35.13;98192.56;6270035;28;19921;-74
2023/05/23 02:37:15;;;;;;;;;;;;;;;14.76;34.88;98193.72;6270200;28;20340;-75
2023/05/23 02:40:16;;;;;;;;;;;;;;;14.89;34.56;98198.25;6270017;28;19917;-74
2023/05/23 02:43:21;;;;;;;;;;;;;;;15.00;34.86;98203.75;6270051;28;20393;-74
2023/05/23 02:46:22;;;;;;;;;;;;;;;15.09;34.83;98205.88;6269753;28;20058;-75
2023/05/23 02:49:28;;;;;;;;;;;;;;;15.22;34.91;98209.44;6269201;28;19920;-74
2023/05/23 02:52:32;;;;;;;;;;;;;;;15.31;34.57;98205.34;6269519;28;19921;-75
2023/05/23 02:55:32;;;;;;;;;;;;;;;15.37;35.40;98209.44;6268778;28;19932;-74
2023/05/23 02:58:37;;;;;;;;;;;;;;;15.46;34.36;98208.88;6269563;28;19917;-75
2023/05/23 03:01:38;;;;;;;;;;;;;;;15.61;34.12;98209.69;6269011;28;19990;-74
2023/05/23 03:04:40;;;;;;;;;;;;;;;15.73;34.54;98210.72;6268984;28;20333;-75
2023/05/23 03:07:45;;;;;;;;;;;;;;;15.90;34.43;98208.66;6269567;28;19924;-74
2023/05/23 03:10:48;;;;;;;;;;;;;;;16.00;34.23;98219.56;6273589;28;20011;-75
2023/05/23 03:13:51;;;;;;;;;;;;;;;16.09;34.18;98218.94;6274943;28;19921;-74
2023/05/23 03:16:52;;;;;;;;;;;;;;;16.22;34.12;98220.78;6274637;28;19920;-74
2023/05/23 03:19:58;;;;;;;;;;;;;;;16.32;33.96;98224.53;6274230;28;19916;-74
2023/05/23 03:23:01;;;;;;;;;;;;;;;16.45;33.44;98214.81;6274652;28;19927;-74
2023/05/23 03:26:05;;;;;;;;;;;;;;;16.59;33.39;98221.84;6273852;28;19916;-74
2023/05/23 03:29:09;;;;;;;;;;;;;;;16.76;33.28;98228.66;6274208;28;19921;-75
2023/05/23 03:32:13;;;;;;;;;;;;;;;16.89;33.10;98229.53;6274234;28;19921;-75
2023/05/23 03:35:17;;;;;;;;;;;;;;;17.00;33.42;98227.00;6274077;28;19921;-75
2023/05/23 03:38:18;;;;;;;;;;;;;;;17.16;33.04;98225.94;6273345;28;19920;-73
2023/05/23 03:41:23;;;;;;;;;;;;;;;17.31;32.70;98226.66;6273608;28;20346;-74
2023/05/23 03:44:27;;;;;;;;;;;;;;;17.48;32.61;98226.31;6273663;28;19921;-74
2023/05/23 03:47:28;;;;;;;;;;;;;;;17.67;32.54;98224.03;6272703;28;20309;-76
2023/05/23 03:50:30;;;;;;;;;;;;;;;17.85;32.21;98219.22;6273545;28;19920;-75
2023/05/23 03:53:33;;;;;;;;;;;;;;;18.01;31.86;98223.44;6273436;28;19924;-74
2023/05/23 03:56:37;;;;;;;;;;;;;;;18.17;32.25;98223.97;6256230;28;19921;-74
2023/05/23 03:59:40;;;;;;;;;;;;;;;18.31;31.53;98230.94;6272609;28;19936;-74
2023/05/23 04:02:42;;;;;;;;;;;;;;;18.47;31.34;98220.84;6273558;28;20414;-76
2023/05/23 04:05:51;;;;;;;;;;;;;;;18.67;31.51;98224.66;6273482;28;19963;-75
2023/05/23 04:08:55;;;;;;;;;;;;;;;18.84;31.43;98221.56;6273325;28;19920;-74
2023/05/23 04:11:58;;;;;;;;;;;;;;;19.02;31.22;98229.09;6272327;28;20063;-75
2023/05/23 04:14:59;;;;;;;;;;;;;;;19.22;30.68;98228.41;6272687;28;19927;-74
2023/05/23 04:18:00;;;;;;;;;;;;;;;19.39;30.70;98228.88;6272366;28;19920;-76
2023/05/23 04:21:03;;;;;;;;;;;;;;;19.59;30.58;98220.16;6272008;28;19924;-75
2023/05/23 04:24:05;;;;;;;;;;;;;;;19.83;30.27;98232.53;6273000;28;19943;-75
2023/05/23 04:27:08;;;;;;;;;;;;;;;20.08;30.24;98226.88;6255222;28;19921;-76
2023/05/23 04:30:16;;;;;;;;;;;;;;;20.36;29.61;98224.59;6272723;28;19920;-73
2023/05/23 04:33:20;;;;;;;;;;;;;;;20.73;29.06;98230.41;6272647;28;19921;-75
2023/05/23 04:36:25;;;;;;;;;;;;;;;22.15;27.80;98235.81;6272749;28;19928;-75
2023/05/23 04:39:26;;;;;;;;;;;;;;;25.31;24.67;98234.81;6271798;28;19916;-75
2023/05/23 04:42:28;;;;;;;;;;;;;;;28.70;21.89;98242.38;6272290;28;19927;-75
2023/05/23 04:45:29;;;;;;;;;;;;;;;31.73;19.98;98241.84;6271435;28;20385;-73
2023/05/23 04:48:33;;;;;;;;;;;;;;;34.40;18.32;98249.06;6272169;28;20366;-75
2023/05/23 04:51:34;;;;;;;;;;;;;;;37.02;17.58;98255.22;6254538;28;19947;-74
2023/05/23 04:54:36;;;;;;;;;;;;;;;39.41;16.27;98260.44;6271585;28;19920;-74
2023/05/23 04:57:37;;;;;;;;;;;;;;;41.87;14.64;98261.13;6272449;28;20425;-74
2023/05/23 05:00:41;;;;;;;;;;;;;;;43.65;10.98;98252.34;6272046;28;19920;-75
2023/05/23 05:03:46;;;;;;;;;;;;;;;45.08;11.49;98255.56;6272068;28;19927;-75
2023/05/23 05:06:49;;;;;;;;;;;;;;;46.49;13.07;98251.53;6271960;28;20306;-75
2023/05/23 05:09:50;;;;;;;;;;;;;;;47.96;12.35;98262.44;6271831;28;20302;-74
2023/05/23 05:12:54;;;;;;;;;;;;;;;49.16;11.42;98256.38;6271166;28;19921;-75
2023/05/23 05:15:58;;;;;;;;;;;;;;;50.13;11.16;98252.13;6272039;28;19921;-76
2023/05/23 05:19:01;;;;;;;;;;;;;;;51.15;7.01;98263.75;6272245;28;19927;-74
2023/05/23 05:22:08;;;;;;;;;;;;;;;52.05;10.17;98268.47;6271756;28;19926;-75
2023/05/23 05:25:15;;;;;;;;;;;;;;;53.10;8.08;98256.47;6271651;28;19927;-75
2023/05/23 05:28:16;;;;;;;;;;;;;;;53.60;6.48;98261.06;6270046;28;19927;-74
2023/05/23 05:31:21;;;;;;;;;;;;;;;53.49;9.20;98262.69;6271755;28;20110;-74
2023/05/23 05:34:23;;;;;;;;;;;;;;;53.34;7.31;98265.03;6270317;28;19926;-75
2023/05/23 05:37:26;;;;;;;;;;;;;;;53.75;8.08;98260.41;6270409;28;20370;-75
2023/05/23 05:40:33;;;;;;;;;;;;;;;54.28;7.97;98261.34;6253158;28;20023;-74
2023/05/23 05:43:36;;;;;;;;;;;;;;;54.92;8.01;98259.66;6271518;28;19928;-74
2023/05/23 05:46:41;;;;;;;;;;;;;;;55.08;7.39;98259.75;6271917;28;19928;-74
2023/05/23 05:49:43;;;;;;;;;;;;;;;55.72;7.38;98259.84;6271508;28;19920;-74
2023/05/23 05:52:47;;;;;;;;;;;;;;;56.25;6.50;98266.03;6271548;28;20019;-74
2023/05/23 05:55:51;;;;;;;;;;;;;;;56.68;6.66;98266.97;6273343;28;20011;-75
2023/05/23 05:58:54;;;;;;;;;;;;;;;57.11;6.18;98254.56;6281896;28;19927;-74
2023/05/23 06:01:56;;;;;;;;;;;;;;;56.86;6.10;98251.25;6269266;28;19920;-74
2023/05/23 06:04:59;;;;;;;;;;;;;;;56.57;5.76;98243.31;6286116;28;19920;-74
2023/05/23 06:08:02;;;;;;;;;;;;;;;57.42;5.19;98241.41;6270681;28;19955;-74
2023/05/23 06:11:06;;;;;;;;;;;;;;;58.05;4.32;98242.88;6291162;28;19940;-75
2023/05/23 06:14:12;;;;;;;;;;;;;;;58.53;5.00;98251.72;6288414;28;19920;-74
2023/05/23 06:17:18;;;;;;;;;;;;;;;58.64;4.18;98240.50;6295158;28;19985;-74
2023/05/23 06:20:21;;;;;;;;;;;;;;;58.68;4.49;98235.72;6297456;28;19920;-74
2023/05/23 06:23:27;;;;;;;;;;;;;;;59.04;3.91;98236.16;6297895;28;19916;-73
2023/05/23 06:26:31;;;;;;;;;;;;;;;59.16;4.11;98237.91;6301524;28;19905;-74
2023/05/23 06:29:58;;;;;;;;;;;;;;;59.03;3.70;98229.69;6303187;28;19954;-75
2023/05/23 06:33:03;;;;;;;;;;;;;;;59.15;4.13;98224.94;6300393;28;19921;-74
2023/05/23 06:36:11;;;;;;;;;;;;;;;58.33;1.87;98219.03;6301852;28;19996;-74
2023/05/23 06:39:17;;;;;;;;;;;;;;;56.38;2.12;98219.50;6291258;28;19926;-74
2023/05/23 06:42:22;;;;;;;;;;;;;;;55.12;3.45;98209.91;6268275;28;19928;-75
2023/05/23 06:45:29;;;;;;;;;;;;;;;56.36;2.70;98213.38;6290594;28;19929;-74
2023/05/23 06:48:32;;;;;;;;;;;;;;;58.01;2.61;98208.00;6296980;28;19920;-74
2023/05/23 06:51:35;;;;;;;;;;;;;;;58.26;2.23;98207.59;6300406;28;19982;-74
2023/05/23 06:54:39;;;;;;;;;;;;;;;58.28;2.53;98210.84;6303715;28;19921;-74
2023/05/23 06:57:42;;;;;;;;;;;;;;;57.82;1.68;98208.16;6302878;28;19996;-74
2023/05/23 07:00:45;;;;;;;;;;;;;;;57.56;2.41;98204.06;6303428;28;19948;-74
2023/05/23 07:03:48;;;;;;;;;;;;;;;57.77;2.18;98203.63;6301251;28;19920;-74
2023/05/23 07:06:51;;;;;;;;;;;;;;;58.37;1.76;98200.06;6302610;28;19921;-74
2023/05/23 07:09:53;;;;;;;;;;;;;;;58.60;1.88;98200.75;6304155;28;19926;-74
2023/05/23 07:12:55;;;;;;;;;;;;;;;58.95;2.36;98195.88;6303515;28;19920;-74
2023/05/23 07:15:58;;;;;;;;;;;;;;;59.73;2.03;98205.19;6290787;28;19901;-74
2023/05/23 07:19:04;;;;;;;;;;;;;;;59.48;1.65;98193.59;6309933;28;19923;-74
2023/05/23 07:22:07;;;;;;;;;;;;;;;59.88;1.16;98186.25;6293236;28;19921;-73
2023/05/23 07:25:14;;;;;;;;;;;;;;;60.74;1.24;98195.25;6312475;28;19928;-73
2023/05/23 07:38:32;;;;;;;;;;;;;;;57.32;1.14;98182.59;6293778;22;19993;-74
2023/05/23 07:41:35;;;;;;;;;;;;;;;56.56;1.58;98168.19;6247186;28;19928;-73
2023/05/23 07:44:40;;;;;;;;;;;;;;;57.79;1.56;98173.72;6245755;28;20016;-74
2023/05/23 07:47:43;;;;;;;;;;;;;;;58.15;1.48;98157.25;6245887;28;19921;-74
2023/05/23 07:50:54;;;;;;;;;;;;;;;58.22;1.49;98163.00;6246987;28;19921;-74
2023/05/23 07:54:06;;;;;;;;;;;;;;;59.44;1.59;98170.06;6249004;28;19921;-74
2023/05/23 07:57:09;;;;;;;;;;;;;;;58.12;1.53;98158.00;6247477;28;19928;-74
2023/05/23 08:00:13;;;;;;;;;;;;;;;56.05;1.39;98157.78;6241204;28;20377;-74
2023/05/23 08:03:17;;;;;;;;;;;;;;;54.66;2.27;98144.56;6227455;28;20457;-73
2023/05/23 08:06:20;;;;;;;;;;;;;;;54.04;1.93;98145.91;6224331;28;19921;-74
2023/05/23 08:09:23;;;;;;;;;;;;;;;55.19;2.14;98146.38;6225158;28;19921;-74
2023/05/23 08:12:25;;;;;;;;;;;;;;;56.34;1.62;98149.94;6224589;28;20014;-74
2023/05/23 08:15:28;;;;;;;;;;;;;;;57.54;1.33;98144.19;6225175;28;20012;-74
2023/05/23 08:18:31;;;;;;;;;;;;;;;58.23;1.15;98147.63;6228475;28;19968;-74
2023/05/23 08:21:35;;;;;;;;;;;;;;;57.25;1.37;98138.03;6226260;28;19921;-74
2023/05/23 08:24:37;;;;;;;;;;;;;;;55.68;1.57;98126.28;6223255;28;19967;-74
2023/05/23 08:27:40;;;;;;;;;;;;;;;55.79;1.65;98121.69;6222624;28;19921;-74
2023/05/23 08:30:42;;;;;;;;;;;;;;;55.60;1.59;98117.63;6197422;28;19929;-73
2023/05/23 08:33:45;;;;;;;;;;;;;;;55.93;1.82;98118.41;6222057;28;19921;-74
2023/05/23 08:36:48;;;;;;;;;;;;;;;56.03;1.73;98117.78;6223014;28;19921;-75
2023/05/23 08:39:51;;;;;;;;;;;;;;;54.71;2.02;98115.31;6223094;28;19921;-74
2023/05/23 08:42:54;;;;;;;;;;;;;;;54.16;2.13;98106.47;6222937;28;19921;-75
2023/05/23 08:45:57;;;;;;;;;;;;;;;55.33;1.48;98112.94;6205686;28;19921;-74
2023/05/23 08:49:01;;;;;;;;;;;;;;;56.91;1.04;98118.03;6221490;28;19921;-75
2023/05/23 08:52:04;;;;;;;;;;;;;;;56.66;1.28;98111.06;6223081;28;19925;-75
2023/05/23 08:55:07;;;;;;;;;;;;;;;56.53;1.32;98112.38;6205219;28;19921;-73
2023/05/23 08:58:09;;;;;;;;;;;;;;;56.95;1.50;98103.94;6222887;28;19921;-73
2023/05/23 09:01:13;;;;;;;;;;;;;;;57.23;1.36;98100.81;6189116;28;19921;-73
2023/05/23 09:04:16;;;;;;;;;;;;;;;57.25;1.48;98101.25;6222726;28;20004;-74
2023/05/23 09:07:21;;;;;;;;;;;;;;;56.61;1.42;98115.00;6205229;28;19928;-73
2023/05/23 09:10:28;;;;;;;;;;;;;;;55.76;1.61;98099.84;6205220;28;20310;-73
2023/05/23 09:13:32;;;;;;;;;;;;;;;55.83;1.95;98102.81;6222247;28;20374;-74
2023/05/23 09:16:35;;;;;;;;;;;;;;;56.28;1.87;98104.22;6222523;28;20012;-74
2023/05/23 09:19:41;;;;;;;;;;;;;;;56.53;1.34;98106.75;6222489;28;19928;-74
2023/05/23 09:22:45;;;;;;;;;;;;;;;55.56;1.47;98098.94;6222413;28;19921;-73
2023/05/23 09:25:49;;;;;;;;;;;;;;;55.24;1.69;98096.16;6204999;28;19932;-74
2023/05/23 09:28:56;;;;;;;;;;;;;;;54.94;2.09;98093.75;6204313;28;20461;-73
2023/05/23 09:32:19;;;;;;;;;;;;;;;54.22;1.90;98085.31;6204340;28;19921;-73
2023/05/23 09:35:22;;;;;;;;;;;;;;;54.78;1.79;98080.84;6222071;28;20251;-73
2023/05/23 09:38:26;;;;;;;;;;;;;;;55.05;1.96;98085.59;6221556;28;19951;-73
2023/05/23 09:41:30;;;;;;;;;;;;;;;55.29;2.11;98072.50;6221945;28;19960;-72
2023/05/23 09:44:40;;;;;;;;;;;;;;;55.18;1.93;98077.88;6221804;28;19921;-74
2023/05/23 09:47:50;;;;;;;;;;;;;;;55.28;1.78;98068.06;6221847;28;19943;-73
2023/05/23 09:50:54;;;;;;;;;;;;;;;54.02;1.79;98060.97;6221505;28;20016;-74
2023/05/23 09:53:57;;;;;;;;;;;;;;;52.72;2.64;98060.75;6221207;28;19922;-73
2023/05/23 09:57:01;;;;;;;;;;;;;;;50.54;2.86;98059.25;6221520;28;19928;-73
2023/05/23 10:00:05;;;;;;;;;;;;;;;46.54;3.94;98050.16;6221463;28;19940;-74
2023/05/23 10:03:12;;;;;;;;;;;;;;;44.79;4.70;98039.75;6221613;28;20354;-75
2023/05/23 10:06:25;;;;;;;;;;;;;;;44.85;4.65;98037.75;6221224;28;19929;-75
2023/05/23 10:09:32;;;;;;;;;;;;;;;45.86;4.41;98035.66;6221692;28;20023;-74
2023/05/23 10:12:34;;;;;;;;;;;;;;;46.17;4.29;98035.16;6221177;28;19921;-74
2023/05/23 10:15:38;;;;;;;;;;;;;;;46.80;4.18;98042.22;6221072;28;20141;-73
2023/05/23 10:18:44;;;;;;;;;;;;;;;46.16;4.12;98038.28;6220558;28;20293;-74
2023/05/23 10:21:50;;;;;;;;;;;;;;;46.79;3.99;98035.78;6220705;28;19928;-74
2023/05/23 10:24:53;;;;;;;;;;;;;;;47.69;3.63;98041.78;6220522;28;19927;-74
2023/05/23 10:27:58;;;;;;;;;;;;;;;47.48;3.71;98040.59;6220773;28;19928;-73
2023/05/23 10:31:02;;;;;;;;;;;;;;;46.28;4.14;98036.69;6203457;28;20405;-73
2023/05/23 10:34:20;;;;;;;;;;;;;;;46.78;4.09;98031.38;6220659;28;20305;-73
2023/05/23 10:37:37;;;;;;;;;;;;;;;47.37;4.07;98039.13;6220307;28;19921;-74
2023/05/23 10:40:57;;;;;;;;;;;;;;;46.56;4.21;98036.75;6220639;28;20028;-74
2023/05/23 10:44:10;;;;;;;;;;;;;;;46.09;4.44;98021.94;6220846;28;19921;-75
2023/05/23 10:47:24;;;;;;;;;;;;;;;46.18;4.46;98020.16;6220680;28;19921;-75
2023/05/23 10:50:36;;;;;;;;;;;;;;;46.10;4.46;98023.63;6203056;28;19921;-73
2023/05/23 10:53:43;;;;;;;;;;;;;;;45.83;4.62;98025.09;6220194;28;19927;-73
2023/05/23 10:56:47;;;;;;;;;;;;;;;46.17;4.46;98028.78;6202975;28;19921;-73
2023/05/23 10:59:49;;;;;;;;;;;;;;;45.84;4.52;98020.38;6220866;28;19921;-74
2023/05/23 11:02:54;;;;;;;;;;;;;;;45.08;4.84;98011.91;6203219;28;20100;-74
2023/05/23 11:05:57;;;;;;;;;;;;;;;45.14;4.95;98023.81;6220003;28;19925;-74
2023/05/23 11:09:04;;;;;;;;;;;;;;;45.33;4.77;98016.34;6203001;28;20302;-74
2023/05/23 11:12:08;;;;;;;;;;;;;;;45.03;4.75;98018.34;6220407;28;20020;-74
2023/05/23 11:15:17;;;;;;;;;;;;;;;44.09;5.37;98015.09;6220856;28;20301;-75
2023/05/23 11:18:25;;;;;;;;;;;;;;;43.36;5.34;98024.09;6220374;28;19921;-73
2023/05/23 11:21:29;;;;;;;;;;;;;;;40.95;6.34;98009.25;6220298;28;19922;-74
2023/05/23 11:24:51;;;;;;;;;;;;;;;38.27;7.64;98009.28;6219865;28;19927;-75
2023/05/23 11:27:55;;;;;;;;;;;;;;;36.24;8.81;98004.00;6195535;28;19922;-74
2023/05/23 11:30:58;;;;;;;;;;;;;;;35.91;8.86;98010.81;6221861;28;20012;-74
2023/05/23 11:34:01;;;;;;;;;;;;;;;36.08;8.78;98003.63;6224556;28;19921;-75
2023/05/23 11:37:04;;;;;;;;;;;;;;;36.15;8.79;98008.97;6224300;28;20383;-74
2023/05/23 11:40:25;;;;;;;;;;;;;;;35.36;8.79;97997.25;6206956;28;20406;-75
2023/05/23 11:43:28;;;;;;;;;;;;;;;34.39;9.36;97995.97;6224522;28;19925;-76
2023/05/23 11:46:31;;;;;;;;;;;;;;;33.88;9.49;97998.91;6224353;28;19921;-74
2023/05/23 11:49:38;;;;;;;;;;;;;;;33.52;9.96;98001.25;6190501;28;20386;-76
2023/05/23 11:52:42;;;;;;;;;;;;;;;33.14;10.30;97997.63;6224398;28;19921;-74
2023/05/23 11:55:52;;;;;;;;;;;;;;;33.22;9.95;97994.66;6206859;28;19928;-74
2023/05/23 11:58:55;;;;;;;;;;;;;;;33.40;10.00;97994.78;6206859;28;19928;-74
2023/05/23 12:01:59;;;;;;;;;;;;;;;33.64;10.27;97997.84;6223854;28;19925;-75
2023/05/23 12:05:05;;;;;;;;;;;;;;;34.18;9.93;97999.13;6223727;28;20382;-74
2023/05/23 12:08:11;;;;;;;;;;;;;;;34.66;9.61;98000.41;6223537;28;19944;-74
2023/05/23 12:11:15;;;;;;;;;;;;;;;34.40;9.87;97986.75;6223855;28;20023;-75
2023/05/23 12:14:16;;;;;;;;;;;;;;;34.17;9.87;97984.66;6206331;28;19975;-74
2023/05/23 12:17:19;;;;;;;;;;;;;;;33.93;10.19;97986.28;6223845;28;19922;-74
2023/05/23 12:20:23;;;;;;;;;;;;;;;34.08;9.96;97991.44;6206126;28;19952;-74
2023/05/23 12:23:27;;;;;;;;;;;;;;;33.98;10.16;97980.97;6205765;28;19921;-76
2023/05/23 12:26:30;;;;;;;;;;;;;;;33.94;9.97;97977.03;6223554;28;19931;-73
2023/05/23 12:29:36;;;;;;;;;;;;;;;33.95;10.24;97986.06;6223205;28;19924;-74
2023/05/23 12:32:41;;;;;;;;;;;;;;;33.41;10.35;97982.81;6206082;28;19928;-76
2023/05/23 12:35:44;;;;;;;;;;;;;;;33.17;10.43;97976.22;6197727;28;19917;-74
2023/05/23 12:38:48;;;;;;;;;;;;;;;33.18;10.37;97977.91;6222783;28;19929;-74
2023/05/23 12:41:50;;;;;;;;;;;;;;;33.19;10.44;97973.28;6221879;28;19921;-74
2023/05/23 12:44:53;;;;;;;;;;;;;;;33.12;10.73;97977.91;6205099;28;19926;-74
2023/05/23 12:47:57;;;;;;;;;;;;;;;33.04;10.35;97971.69;6222722;28;20012;-74
2023/05/23 12:51:01;;;;;;;;;;;;;;;32.82;10.96;97973.00;6222635;28;20005;-74
2023/05/23 12:54:05;;;;;;;;;;;;;;;32.26;11.08;97971.59;6199723;28;20006;-74
2023/05/23 12:57:08;;;;;;;;;;;;;;;32.15;10.80;97962.19;6222619;28;19917;-75
2023/05/23 13:00:12;;;;;;;;;;;;;;;31.95;11.46;97961.38;6222480;28;20019;-75
2023/05/23 13:03:16;;;;;;;;;;;;;;;31.61;11.65;97968.63;6222421;28;19921;-75
2023/05/23 13:06:20;;;;;;;;;;;;;;;31.23;11.82;97966.44;6222062;28;20013;-73
2023/05/23 13:09:23;;;;;;;;;;;;;;;30.73;11.98;97957.63;6222101;28;19917;-74
2023/05/23 13:12:26;;;;;;;;;;;;;;;30.53;12.35;97949.38;6187891;28;19925;-74
2023/05/23 13:15:29;;;;;;;;;;;;;;;30.45;12.41;97956.84;6222056;28;19933;-73
2023/05/23 13:18:32;;;;;;;;;;;;;;;30.26;12.35;97956.50;6222233;28;19924;-73
2023/05/23 13:21:35;;;;;;;;;;;;;;;30.18;12.16;97959.38;6221880;28;19921;-75
2023/05/23 13:24:39;;;;;;;;;;;;;;;30.27;12.70;97955.50;6203779;28;19929;-74
2023/05/23 13:27:43;;;;;;;;;;;;;;;30.16;12.56;97956.00;6204148;28;20009;-74
2023/05/23 13:30:46;;;;;;;;;;;;;;;30.13;12.36;97957.22;6204215;28;19921;-75
2023/05/23 13:33:48;;;;;;;;;;;;;;;30.18;12.27;97957.47;6221706;28;20318;-74
2023/05/23 13:36:51;;;;;;;;;;;;;;;30.22;12.55;97957.94;6187919;28;19921;-74
2023/05/23 13:39:54;;;;;;;;;;;;;;;30.20;12.53;97954.56;6203556;28;20043;-74
2023/05/23 13:42:57;;;;;;;;;;;;;;;30.04;12.89;97957.59;6204197;28;19921;-75
2023/05/23 13:46:01;;;;;;;;;;;;;;;29.87;12.92;97957.88;6204149;28;19928;-75
2023/05/23 13:49:05;;;;;;;;;;;;;;;29.54;13.21;97947.50;6221413;28;19921;-75
2023/05/23 13:52:08;;;;;;;;;;;;;;;29.32;13.09;97948.53;6221143;28;20305;-74
2023/05/23 13:55:11;;;;;;;;;;;;;;;29.19;13.33;97943.84;6203149;28;19922;-75
2023/05/23 13:58:14;;;;;;;;;;;;;;;29.09;13.45;97949.53;6221099;28;20333;-74
2023/05/23 14:01:17;;;;;;;;;;;;;;;28.96;13.33;97949.38;6203520;28;20019;-76
2023/05/23 14:04:21;;;;;;;;;;;;;;;28.93;13.25;97944.34;6220798;28;19921;-75
2023/05/23 14:07:24;;;;;;;;;;;;;;;28.87;13.52;97945.06;6187573;28;20409;-74
2023/05/23 14:10:28;;;;;;;;;;;;;;;28.75;13.77;97943.88;6203633;28;20315;-74
2023/05/23 14:13:31;;;;;;;;;;;;;;;28.52;14.01;97942.13;6186808;28;20034;-75
2023/05/23 14:16:35;;;;;;;;;;;;;;;28.49;14.13;97947.09;6220995;28;19921;-75
2023/05/23 14:19:39;;;;;;;;;;;;;;;28.34;14.27;97938.94;6220793;28;20024;-74
2023/05/23 14:22:41;;;;;;;;;;;;;;;28.04;14.13;97936.19;6203432;28;19928;-74
2023/05/23 14:25:45;;;;;;;;;;;;;;;27.80;14.30;97936.41;6220546;28;19939;-74
2023/05/23 14:28:48;;;;;;;;;;;;;;;27.69;14.36;97946.63;6220705;28;20275;-75
2023/05/23 14:31:51;;;;;;;;;;;;;;;27.61;14.15;97938.59;6202986;28;19999;-75
2023/05/23 14:34:55;;;;;;;;;;;;;;;27.36;14.65;97942.50;6220299;28;19927;-76
2023/05/23 14:37:58;;;;;;;;;;;;;;;27.02;14.85;97932.88;6220256;28;19921;-75
2023/05/23 14:41:02;;;;;;;;;;;;;;;26.76;14.85;97939.44;6203278;28;20373;-75
2023/05/23 14:44:06;;;;;;;;;;;;;;;26.59;15.25;97932.44;6220399;28;20327;-74
2023/05/23 14:47:08;;;;;;;;;;;;;;;26.47;15.07;97939.19;6220372;28;20302;-74
2023/05/23 14:50:11;;;;;;;;;;;;;;;26.28;15.25;97929.66;6218395;28;20071;-75
2023/05/23 14:53:13;;;;;;;;;;;;;;;26.14;15.11;97933.88;6202972;28;19925;-75
2023/05/23 14:56:16;;;;;;;;;;;;;;;26.08;15.61;97934.59;6186675;28;19917;-75
2023/05/23 14:59:20;;;;;;;;;;;;;;;26.04;15.58;97936.75;6220120;28;19927;-75
2023/05/23 15:02:22;;;;;;;;;;;;;;;25.91;15.75;97940.00;6202861;28;19927;-75
2023/05/23 15:05:26;;;;;;;;;;;;;;;25.79;16.05;97940.47;6204062;28;19921;-75
2023/05/23 15:08:32;;;;;;;;;;;;;;;25.62;15.55;97934.25;6225333;28;19921;-76
2023/05/23 15:11:39;;;;;;;;;;;;;;;25.58;15.56;97930.22;6225202;28;19928;-73
2023/05/23 15:14:42;;;;;;;;;;;;;;;25.58;16.41;97930.22;6191470;28;20071;-74
2023/05/23 15:17:47;;;;;;;;;;;;;;;25.51;16.21;97936.28;6224953;28;20024;-74
2023/05/23 15:20:50;;;;;;;;;;;;;;;25.37;15.75;97931.56;6224475;28;19921;-76
2023/05/23 15:23:56;;;;;;;;;;;;;;;25.19;16.66;97938.94;6224190;28;20030;-76
2023/05/23 15:26:58;;;;;;;;;;;;;;;25.04;16.30;97942.25;6206650;28;20403;-74
2023/05/23 15:30:03;;;;;;;;;;;;;;;24.87;16.55;97946.72;6224149;28;19933;-74
2023/05/23 15:33:06;;;;;;;;;;;;;;;24.71;16.73;97940.44;6224618;28;19928;-74
2023/05/23 15:36:11;;;;;;;;;;;;;;;24.50;16.76;97944.41;6224219;28;19932;-75
2023/05/23 15:39:15;;;;;;;;;;;;;;;24.30;16.77;97937.56;6223818;28;20006;-75
2023/05/23 15:42:20;;;;;;;;;;;;;;;24.11;17.03;97942.16;6223750;28;19952;-74
2023/05/23 15:45:23;;;;;;;;;;;;;;;23.93;17.74;97946.75;6223840;28;19929;-75
2023/05/23 15:48:29;;;;;;;;;;;;;;;23.73;18.06;97944.25;6222865;28;19928;-76
2023/05/23 15:51:31;;;;;;;;;;;;;;;23.52;18.04;97938.31;6206299;28;20298;-74
2023/05/23 15:54:35;;;;;;;;;;;;;;;23.33;18.35;97949.25;6225129;28;20103;-75
2023/05/23 15:57:38;;;;;;;;;;;;;;;23.11;18.80;97946.00;6225356;28;20425;-76
2023/05/23 16:00:42;;;;;;;;;;;;;;;22.91;18.42;97944.44;6224921;28;19921;-75
2023/05/23 16:03:46;;;;;;;;;;;;;;;22.74;19.72;97954.97;6224022;28;19928;-75
2023/05/23 16:06:49;;;;;;;;;;;;;;;22.56;20.29;97946.00;6224231;28;20021;-75
2023/05/23 16:09:52;;;;;;;;;;;;;;;22.34;20.59;97958.84;6224144;28;19924;-75
2023/05/23 16:12:56;;;;;;;;;;;;;;;22.21;19.82;97955.63;6223791;28;20287;-76